Monarch, MT (59463)

10:29 PM MDT on August 25, 2016 (GMT -0600)
Malmstrom AFB | | Change Station

Elev 3527 ft 47.50 °N, 111.19 °W | Updated 31 minutes ago

Clear
Clear
60 °F
Feels Like 60 °F
N
10
Wind Variable Wind from NNE

Today
High -- | Low -- °F
--% Chance of Precip.
Yesterday
High -- | Low -- °F
Precip. -- in
Pressure 30.17 in
Visibility 10.0 miles
Clouds Clear
Dew Point 41 °F
Humidity 49%
Rainfall 0.00 in
Snow Depth Not available.
6:34 AM 8:15 PM
Last Quarter, 38% visible
METAR KGFA 260358Z COR 03009KT 10SM CLR 16/05 A3017 RMK AO2A SLP216 WND DATA ESTMD T01550049 TSNO $ COR 0359
Pressure 30.17 in
Visibility 10.0 miles
Clouds Clear
Dew Point 41 °F
Humidity 49%
Rainfall 0.00 in
Snow Depth Not available.
6:34 AM 8:15 PM
Last Quarter, 38% visible
METAR KGFA 260358Z COR 03009KT 10SM CLR 16/05 A3017 RMK AO2A SLP216 WND DATA ESTMD T01550049 TSNO $ COR 0359
A tropical disturbance pushing toward the Bahamas, is expected to develop into a tropical depression or storm, and will likely target Florida and the Gulf Coast this weekend into next week.

Right now, the disturbance remains a broad area of low pressure pushing through the Dominican Republic and Haiti, headed toward the southeast Bahamas. Rainfall totals over 3 inches (with locally higher amounts) are expected in HispaƱiola, particularly over elevated terrain.

10-Day Weather Forecast

Almanac

Astronomy

Aug. 25, 2016 Rise Set
Actual Time
Civil Twilight
Nautical Twilight
Astronomical Twilight
Moon
Length of Visible Light
Length of Day
Tomorrow will be .
, % of the Moon is Illuminated

Today's Extremes

State Highs State Lows

Community

WunderPhotos

Upload Photos

1,935,057 photos uploaded!

WunderBlog® & News

Nearby

Air Quality

  Air Quality AQ Index Pollutant
Not available.

Snow Depth

Station Depth Elevation

Earthquake Activity

City Distance Mag. Time & Date
Minimum magnitude displayed is 2.5.

Coastal Water Temperatures

Place Temperature

Stations

Nearby Weather Stations

Station Location Temp. Windchill Dew Point Humidity Wind Precip. Elev Updated Type
                   

Watches & Warnings

There are currently no watches in effect.